Time;durP1;ratioP1;P1;durP2;ratioP2;P2;SDS_P1;SDS_P2;PMS_P1;PMS_P2;Temp;Humidity;BMP_temperature;BMP_pressure;BME280_temperature;BME280_humidity;BME280_pressure;Samples;Min_cycle;Max_cycle;Signal;HPM_P1;HPM_P2
2022/04/19 00:00:07;;;;;;;13.40;4.72;;;;;;;4.76;62.27;99829.38;5008669;28;20129;-63
2022/04/19 00:02:35;;;;;;;14.32;4.35;;;;;;;4.69;62.93;99850.38;5009693;28;20421;-64
2022/04/19 00:05:01;;;;;;;12.95;4.50;;;;;;;4.79;62.69;99837.16;5009888;28;20057;-65
2022/04/19 00:07:29;;;;;;;13.52;4.50;;;;;;;4.66;63.07;99828.31;5010321;28;20103;-64
2022/04/19 00:09:54;;;;;;;10.45;4.07;;;;;;;4.75;62.95;99833.00;5009935;28;20053;-63
2022/04/19 00:12:22;;;;;;;14.13;4.82;;;;;;;4.77;62.87;99834.59;5010235;28;20124;-65
2022/04/19 00:14:48;;;;;;;13.45;4.88;;;;;;;4.67;63.39;99840.72;5010011;28;20422;-62
2022/04/19 00:17:14;;;;;;;14.07;4.78;;;;;;;4.66;63.69;99831.84;5009557;28;20084;-63
2022/04/19 00:19:40;;;;;;;11.13;4.40;;;;;;;4.49;63.57;99814.28;4992147;28;20132;-63
2022/04/19 00:22:05;;;;;;;16.63;5.10;;;;;;;4.72;63.82;99835.91;4992037;28;20042;-63
2022/04/19 00:24:32;;;;;;;10.68;4.72;;;;;;;4.74;63.80;99839.31;5009707;28;20049;-64
2022/04/19 00:26:58;;;;;;;12.32;4.72;;;;;;;4.69;64.08;99839.66;5009637;28;20057;-63
2022/04/19 00:29:23;;;;;;;12.98;5.38;;;;;;;4.73;63.64;99838.47;4991861;28;20046;-63
2022/04/19 00:31:49;;;;;;;13.02;4.60;;;;;;;4.74;64.03;99840.16;5008566;28;20060;-64
2022/04/19 00:34:16;;;;;;;13.52;4.65;;;;;;;4.72;64.08;99830.56;5009872;28;20073;-63
2022/04/19 00:36:41;;;;;;;13.77;4.63;;;;;;;4.80;64.21;99831.72;5009725;28;20082;-64
2022/04/19 00:39:07;;;;;;;11.60;4.32;;;;;;;4.82;64.29;99829.75;5009807;28;20410;-64
2022/04/19 00:41:33;;;;;;;14.02;4.53;;;;;;;4.85;63.89;99839.41;5008378;28;20061;-63
2022/04/19 00:43:59;;;;;;;12.20;4.40;;;;;;;4.71;64.35;99836.84;5010964;28;20057;-63
2022/04/19 00:46:25;;;;;;;13.45;4.63;;;;;;;4.68;64.51;99831.72;5011971;28;20077;-65
2022/04/19 00:48:52;;;;;;;12.77;4.25;;;;;;;4.65;65.03;99830.13;5011532;28;20042;-64
2022/04/19 00:51:20;;;;;;;13.13;4.53;;;;;;;4.50;65.48;99824.03;5011870;28;20049;-64
2022/04/19 00:53:47;;;;;;;10.57;4.05;;;;;;;4.54;65.46;99825.53;5011660;28;20152;-63
2022/04/19 00:56:14;;;;;;;13.60;4.07;;;;;;;4.35;65.95;99825.09;4995279;28;20060;-63
2022/04/19 00:58:40;;;;;;;10.85;4.55;;;;;;;4.18;66.21;99785.31;4994987;28;20045;-64
2022/04/19 01:01:06;;;;;;;12.70;3.88;;;;;;;4.48;65.90;99831.31;4979244;28;20038;-64
2022/04/19 01:03:33;;;;;;;11.80;4.30;;;;;;;4.43;66.26;99835.28;5011426;28;20103;-63
2022/04/19 01:06:07;;;;;;;11.15;4.22;;;;;;;4.40;66.45;99820.28;4980151;28;20072;-64
2022/04/19 01:08:33;;;;;;;12.02;4.40;;;;;;;4.35;66.64;99819.75;4994761;28;20076;-64
2022/04/19 01:13:57;;;;;;;14.50;4.22;;;;;;;4.41;66.75;99819.31;5003046;28;20058;-63
2022/04/19 01:16:25;;;;;;;10.73;4.05;;;;;;;4.41;66.92;99808.63;4995347;28;20179;-64
2022/04/19 01:18:53;;;;;;;13.23;4.30;;;;;;;4.46;66.97;99817.19;4995171;28;20180;-64
2022/04/19 01:21:19;;;;;;;14.32;4.38;;;;;;;4.41;67.20;99816.66;4995314;28;20046;-62
2022/04/19 01:23:45;;;;;;;14.38;4.53;;;;;;;4.37;67.71;99806.28;5011104;28;20454;-64
2022/04/19 01:26:11;;;;;;;12.57;4.43;;;;;;;4.17;67.58;99791.59;4994957;28;20061;-63
2022/04/19 01:28:38;;;;;;;12.30;4.95;;;;;;;4.28;67.95;99797.09;5012340;28;20068;-64
2022/04/19 01:31:06;;;;;;;11.73;4.00;;;;;;;4.30;68.04;99803.16;5010853;28;20056;-64
2022/04/19 01:33:40;;;;;;;11.10;4.90;;;;;;;4.27;68.27;99796.19;5011102;28;20038;-63
2022/04/19 01:36:09;;;;;;;15.38;4.72;;;;;;;4.24;68.07;99790.22;4994675;28;20576;-63
2022/04/19 01:38:38;;;;;;;11.00;4.43;;;;;;;4.20;68.63;99783.38;5010855;28;20061;-63
2022/04/19 01:41:04;;;;;;;14.32;4.82;;;;;;;4.17;69.20;99794.28;5010722;28;20050;-63
2022/04/19 01:43:44;;;;;;;15.27;4.72;;;;;;;4.20;68.98;99796.75;5010579;28;20461;-64
2022/04/19 01:46:11;;;;;;;15.88;3.92;;;;;;;4.13;69.38;99803.47;4994296;28;20496;-63
2022/04/19 01:48:37;;;;;;;15.90;5.22;;;;;;;4.03;70.04;99779.22;5010571;28;20215;-63
2022/04/19 01:51:03;;;;;;;11.85;4.20;;;;;;;4.08;70.13;99801.13;5010568;28;20469;-63
2022/04/19 01:53:30;;;;;;;11.30;4.40;;;;;;;3.92;70.27;99768.41;5010103;28;20096;-64
2022/04/19 01:55:56;;;;;;;13.52;5.20;;;;;;;4.10;70.27;99805.44;4993121;28;20046;-62
2022/04/19 01:58:40;;;;;;;14.05;4.50;;;;;;;4.15;70.49;99804.25;5011813;28;20048;-64
2022/04/19 02:01:09;;;;;;;17.73;5.00;;;;;;;4.04;70.87;99810.34;5010350;28;20058;-63
2022/04/19 02:03:35;;;;;;;12.20;4.45;;;;;;;4.05;71.01;99812.03;5010418;28;20448;-63
2022/04/19 02:06:07;;;;;;;11.60;4.95;;;;;;;3.93;71.11;99797.69;4993962;28;20058;-63
2022/04/19 02:08:34;;;;;;;10.65;4.38;;;;;;;4.02;71.35;99818.47;4994254;28;20056;-65
2022/04/19 02:11:01;;;;;;;12.75;4.70;;;;;;;3.91;71.04;99791.59;4994086;28;20049;-63
2022/04/19 02:13:27;;;;;;;11.43;4.75;;;;;;;4.06;71.47;99816.44;5010269;28;20045;-63
2022/04/19 02:16:12;;;;;;;8.77;4.32;;;;;;;3.95;71.94;99822.53;5011754;28;20050;-64
2022/04/19 02:18:38;;;;;;;14.25;4.18;;;;;;;4.04;71.88;99824.56;5010123;28;20410;-64
2022/04/19 02:21:04;;;;;;;12.25;5.20;;;;;;;3.98;72.00;99822.31;4993874;28;20132;-62
2022/04/19 02:23:29;;;;;;;13.07;4.53;;;;;;;3.94;72.21;99807.44;5009932;28;20474;-63
2022/04/19 02:25:55;;;;;;;10.55;3.92;;;;;;;3.99;72.19;99824.03;5009876;28;20077;-62
2022/04/19 02:28:22;;;;;;;18.33;4.30;;;;;;;3.87;72.35;99814.16;4977286;28;20068;-63
2022/04/19 02:31:00;;;;;;;13.77;4.70;;;;;;;3.91;72.27;99821.00;5009848;28;20057;-63
2022/04/19 02:33:29;;;;;;;15.25;5.55;;;;;;;3.85;72.15;99816.94;4993470;28;20050;-64
2022/04/19 02:35:56;;;;;;;13.15;4.85;;;;;;;3.98;72.07;99835.66;4993694;28;20048;-64
2022/04/19 02:38:24;;;;;;;10.30;4.10;;;;;;;3.96;71.87;99829.59;5009761;28;20072;-64
2022/04/19 02:40:51;;;;;;;13.05;4.85;;;;;;;3.94;72.25;99847.53;5010104;28;20049;-63
2022/04/19 02:43:17;;;;;;;11.88;5.13;;;;;;;3.90;71.79;99848.72;5010322;28;20048;-65
2022/04/19 02:45:45;;;;;;;12.10;4.40;;;;;;;3.74;71.36;99824.84;5010000;28;20129;-65
2022/04/19 02:48:18;;;;;;;15.02;4.88;;;;;;;3.89;71.81;99863.06;5009407;28;20391;-63
2022/04/19 02:50:48;;;;;;;13.98;4.88;;;;;;;3.96;71.62;99859.00;4993095;28;20056;-63
2022/04/19 02:53:14;;;;;;;13.73;4.80;;;;;;;3.99;71.38;99855.28;5010814;28;20081;-65
2022/04/19 02:55:41;;;;;;;11.23;4.57;;;;;;;3.94;71.50;99863.59;5009252;28;20092;-64
2022/04/19 02:58:07;;;;;;;14.98;4.30;;;;;;;3.94;71.40;99863.59;4993030;28;20413;-64
2022/04/19 03:00:37;;;;;;;12.40;4.88;;;;;;;3.98;71.29;99870.44;4993093;28;20053;-65
2022/04/19 03:03:03;;;;;;;11.90;4.50;;;;;;;4.08;71.00;99876.88;4992606;28;20347;-64
2022/04/19 03:05:30;;;;;;;11.80;5.05;;;;;;;4.04;71.25;99870.03;4976498;28;20385;-64
2022/04/19 03:07:56;;;;;;;13.10;4.78;;;;;;;4.06;71.08;99867.28;5010400;28;20041;-64
2022/04/19 03:10:23;;;;;;;16.60;5.25;;;;;;;4.06;71.06;99868.13;5009154;28;20046;-64
2022/04/19 03:12:52;;;;;;;13.98;4.90;;;;;;;4.06;71.06;99869.94;4992815;28;20128;-62
2022/04/19 03:15:20;;;;;;;11.93;5.07;;;;;;;4.07;70.62;99859.13;5009031;28;20041;-64
2022/04/19 03:17:47;;;;;;;14.32;5.07;;;;;;;4.21;70.39;99870.72;5009207;28;20053;-63
2022/04/19 03:20:16;;;;;;;11.98;4.28;;;;;;;4.15;70.42;99861.28;5008496;28;20069;-64
2022/04/19 03:28:17;;;;;;;12.65;4.45;;;;;;;4.40;69.71;99876.50;5008516;28;20386;-65
2022/04/19 03:30:43;;;;;;;13.73;5.75;;;;;;;4.28;69.77;99854.13;5008316;28;20124;-65
2022/04/19 03:33:12;;;;;;;16.30;5.18;;;;;;;4.36;70.04;99875.00;4991938;28;20548;-65
2022/04/19 03:35:38;;;;;;;14.43;5.38;;;;;;;4.43;69.87;99859.38;5008832;28;20060;-64
2022/04/19 03:38:05;;;;;;;14.90;3.95;;;;;;;4.43;70.41;99859.38;4992017;28;20541;-64
2022/04/19 03:40:31;;;;;;;12.43;4.85;;;;;;;4.41;70.24;99867.50;4992115;28;20144;-65
2022/04/19 03:42:57;;;;;;;14.45;5.00;;;;;;;4.59;70.01;99865.38;5007855;28;20053;-64
2022/04/19 03:45:25;;;;;;;10.73;3.97;;;;;;;4.62;69.68;99869.66;4992429;28;20073;-64
2022/04/19 03:47:52;;;;;;;16.15;4.75;;;;;;;4.63;69.92;99860.66;4991971;28;20136;-64
2022/04/19 03:50:18;;;;;;;15.80;4.55;;;;;;;4.74;69.98;99860.75;5008497;28;20046;-65
2022/04/19 03:52:46;;;;;;;13.48;4.65;;;;;;;4.86;69.53;99859.00;5008494;28;20073;-66
2022/04/19 03:55:12;;;;;;;14.52;4.28;;;;;;;4.81;69.61;99853.97;4959749;28;20081;-65
2022/04/19 03:57:38;;;;;;;10.90;4.65;;;;;;;4.88;69.84;99855.25;5008599;28;20049;-65
2022/04/19 04:00:07;;;;;;;17.30;4.60;;;;;;;4.82;70.12;99828.91;5007979;28;20098;-65
2022/04/19 04:02:42;;;;;;;15.65;4.38;;;;;;;5.03;70.31;99854.16;4999247;28;20124;-66
2022/04/19 04:05:14;;;;;;;13.60;4.78;;;;;;;4.98;70.21;99850.09;4990491;28;20517;-68
2022/04/19 04:07:41;;;;;;;11.43;3.85;;;;;;;5.05;70.08;99852.22;5002338;28;20050;-65
2022/04/19 04:10:09;;;;;;;12.77;3.90;;;;;;;5.20;70.01;99857.44;4970319;28;20050;-64
2022/04/19 04:12:35;;;;;;;14.48;4.25;;;;;;;5.24;70.16;99856.25;4986113;28;20050;-64
2022/04/19 04:15:01;;;;;;;13.98;4.38;;;;;;;5.26;70.46;99865.00;4977036;28;20049;-64
2022/04/19 04:17:29;;;;;;;10.45;3.50;;;;;;;5.21;70.27;99851.09;4972403;28;20108;-65
2022/04/19 04:19:59;;;;;;;14.07;4.00;;;;;;;5.36;70.28;99847.28;4974594;28;20058;-65
2022/04/19 04:22:26;;;;;;;15.13;4.38;;;;;;;5.16;70.44;99831.84;4990000;28;20061;-68
2022/04/19 04:24:53;;;;;;;9.52;3.47;;;;;;;5.17;69.92;99817.47;4944755;28;20042;-66
2022/04/19 04:27:19;;;;;;;12.13;4.40;;;;;;;5.41;70.15;99837.09;4978762;28;20176;-65
2022/04/19 04:29:46;;;;;;;10.50;3.60;;;;;;;5.53;69.67;99862.13;4978126;28;20137;-64
2022/04/19 04:32:12;;;;;;;14.73;4.32;;;;;;;5.38;70.03;99869.50;4994407;28;20108;-66
2022/04/19 04:34:39;;;;;;;18.60;3.80;;;;;;;5.48;70.24;99865.13;4975688;28;20061;-64
2022/04/19 04:37:07;;;;;;;10.85;4.03;;;;;;;5.44;70.23;99863.66;4988943;28;20038;-67
2022/04/19 04:39:38;;;;;;;11.45;3.90;;;;;;;5.45;70.44;99865.41;4975212;28;20189;-66
2022/04/19 04:42:29;;;;;;;12.85;3.97;;;;;;;5.66;69.94;99868.28;4966366;28;20050;-65
2022/04/19 04:45:08;;;;;;;10.93;3.95;;;;;;;5.57;70.32;99875.19;4977261;28;20050;-66
2022/04/19 04:50:21;;;;;;;11.05;3.55;;;;;;;5.48;71.26;99875.88;4991911;28;20081;-65
2022/04/19 04:52:48;;;;;;;12.23;4.32;;;;;;;5.46;70.71;99882.34;4991342;28;20049;-66
2022/04/19 04:55:14;;;;;;;12.93;4.05;;;;;;;5.57;70.82;99879.72;4975423;28;20099;-65
2022/04/19 04:57:41;;;;;;;13.70;4.10;;;;;;;5.47;71.42;99867.94;4991517;28;20081;-66
2022/04/19 05:00:07;;;;;;;11.70;4.13;;;;;;;5.72;70.20;99875.03;4991196;28;20506;-65
2022/04/19 05:03:02;;;;;;;11.13;3.90;;;;;;;5.51;71.13;99870.28;4987208;28;20138;-65
2022/04/19 05:05:28;;;;;;;10.50;3.78;;;;;;;5.65;70.92;99865.72;4958954;28;20422;-65
2022/04/19 05:07:57;;;;;;;11.25;3.45;;;;;;;5.56;70.71;99835.94;4992257;28;20436;-65
2022/04/19 05:10:25;;;;;;;9.27;3.60;;;;;;;5.79;70.26;99862.88;4974626;28;20061;-66
2022/04/19 05:12:50;;;;;;;18.23;4.82;;;;;;;5.76;70.56;99865.78;4958839;28;20042;-65
2022/04/19 05:15:21;;;;;;;9.32;3.20;;;;;;;5.48;71.01;99851.72;4991183;28;20050;-66
2022/04/19 05:17:47;;;;;;;14.52;3.83;;;;;;;5.69;70.77;99867.19;4974725;28;20683;-66
2022/04/19 05:20:15;;;;;;;11.65;3.55;;;;;;;5.70;70.92;99871.59;4975113;28;20073;-65
2022/04/19 05:22:41;;;;;;;13.10;4.10;;;;;;;5.87;70.46;99876.56;4974962;28;20120;-65
2022/04/19 05:25:09;;;;;;;11.57;3.67;;;;;;;5.94;70.40;99867.09;4975014;28;20103;-65
2022/04/19 05:27:37;;;;;;;12.23;3.10;;;;;;;6.11;70.09;99868.50;4958830;28;20460;-65
2022/04/19 05:30:04;;;;;;;12.77;3.60;;;;;;;6.13;70.27;99861.19;4974397;28;20050;-65
2022/04/19 05:32:30;;;;;;;10.80;3.72;;;;;;;6.31;69.50;99858.91;4974792;28;20067;-65
2022/04/19 05:34:56;;;;;;;10.82;3.63;;;;;;;6.53;68.75;99864.31;4974614;28;20046;-66
2022/04/19 05:37:23;;;;;;;15.00;4.13;;;;;;;6.37;68.68;99842.31;4975355;28;20058;-65
2022/04/19 05:39:50;;;;;;;16.45;4.47;;;;;;;6.51;68.30;99860.06;4992616;28;20454;-65
2022/04/19 05:42:17;;;;;;;13.35;4.13;;;;;;;6.79;67.69;99860.53;4975175;28;20517;-65
2022/04/19 05:44:43;;;;;;;16.00;4.20;;;;;;;6.71;67.78;99866.53;4974794;28;20098;-66
2022/04/19 05:47:11;;;;;;;14.90;3.78;;;;;;;6.80;67.74;99871.19;4990542;28;20050;-66
2022/04/19 05:49:39;;;;;;;19.70;4.95;;;;;;;6.73;67.60;99875.34;4958167;28;20459;-66
2022/04/19 05:52:05;;;;;;;13.45;4.47;;;;;;;7.13;66.38;99882.88;4990210;28;20049;-65
2022/04/19 05:54:31;;;;;;;14.93;4.18;;;;;;;7.19;66.59;99882.38;4990400;28;20058;-64
2022/04/19 05:56:57;;;;;;;11.77;4.05;;;;;;;7.49;66.00;99879.91;4990342;28;20049;-66
2022/04/19 05:59:23;;;;;;;17.65;5.20;;;;;;;7.75;64.01;99879.56;4990716;28;20058;-64
2022/04/19 06:07:17;;;;;;;11.32;4.03;;;;;;;8.03;62.28;99877.25;4991592;28;20138;-65
2022/04/19 06:09:44;;;;;;;13.93;4.63;;;;;;;8.09;62.32;99876.75;4974038;28;20050;-66
2022/04/19 06:12:10;;;;;;;16.55;4.53;;;;;;;8.37;61.21;99876.16;4990393;28;20050;-65
2022/04/19 06:14:44;;;;;;;14.20;4.65;;;;;;;8.33;62.01;99880.03;4973795;28;20480;-66
2022/04/19 06:17:21;;;;;;;13.30;4.38;;;;;;;8.72;60.58;99863.28;4990487;28;20185;-65
2022/04/19 06:19:48;;;;;;;16.40;3.85;;;;;;;8.81;59.32;99857.97;4990253;28;20121;-65
2022/04/19 06:22:14;;;;;;;11.68;3.38;;;;;;;9.13;59.18;99865.88;4990362;28;20381;-64
2022/04/19 06:24:55;;;;;;;17.02;4.00;;;;;;;9.17;58.50;99847.56;4973486;28;20074;-64
2022/04/19 06:27:22;;;;;;;17.05;4.43;;;;;;;9.23;58.97;99875.84;4990278;28;20053;-65
2022/04/19 06:29:47;;;;;;;15.75;4.28;;;;;;;9.24;58.36;99869.47;4957712;28;20038;-65
2022/04/19 06:32:13;;;;;;;13.68;3.97;;;;;;;8.63;59.49;99851.50;4990166;28;20050;-65
2022/04/19 06:34:42;;;;;;;12.15;3.72;;;;;;;8.61;59.89;99891.19;4989504;28;20074;-65
2022/04/19 06:37:12;;;;;;;13.05;3.47;;;;;;;8.91;58.98;99891.19;4990064;28;20050;-65
2022/04/19 06:39:42;;;;;;;14.15;3.90;;;;;;;9.22;58.62;99899.28;4989678;28;20074;-65
2022/04/19 06:42:09;;;;;;;9.95;3.25;;;;;;;9.14;58.56;99899.09;4989115;28;20069;-65
2022/04/19 06:44:58;;;;;;;10.00;3.85;;;;;;;9.88;56.97;99891.47;4986998;28;20058;-65
2022/04/19 06:47:29;;;;;;;16.00;4.32;;;;;;;11.21;53.18;99890.69;4989974;28;20034;-66
2022/04/19 06:49:58;;;;;;;15.80;4.88;;;;;;;11.73;51.25;99862.00;4957478;28;20061;-65
2022/04/19 06:52:24;;;;;;;;;;;;;;;11.50;50.99;99882.41;4990129;28;20417;-65
2022/04/19 06:54:51;;;;;;;15.93;3.92;;;;;;;11.18;52.22;99889.13;4973505;28;20381;-64
2022/04/19 06:57:17;;;;;;;12.32;3.80;;;;;;;10.51;54.55;99876.69;4989725;28;20057;-65
2022/04/19 06:59:43;;;;;;;11.40;3.70;;;;;;;10.13;54.96;99862.19;4973159;28;20047;-65
2022/04/19 07:02:09;;;;;;;20.05;3.97;;;;;;;9.60;56.89;99876.94;4989708;28;20046;-66
2022/04/19 07:05:10;;;;;;;11.30;3.53;;;;;;;9.49;58.07;99889.69;4977851;28;20192;-64
2022/04/19 07:07:42;;;;;;;11.43;3.33;;;;;;;9.50;58.48;99886.00;4973163;28;20471;-66
2022/04/19 07:10:10;;;;;;;15.10;4.32;;;;;;;9.32;58.79;99889.34;4989098;28;20414;-65
2022/04/19 07:12:37;;;;;;;16.08;4.40;;;;;;;9.42;58.79;99889.38;4989269;28;20138;-64
2022/04/19 07:15:12;;;;;;;13.52;4.00;;;;;;;9.22;60.18;99891.19;4974694;28;20042;-64
2022/04/19 07:17:47;;;;;;;11.32;3.97;;;;;;;9.15;59.87;99890.03;4972928;28;20105;-65
2022/04/19 07:28:35;;;;;;;16.92;3.95;;;;;;;9.00;61.37;99894.09;4989146;28;20179;-65
2022/04/19 07:31:03;;;;;;;29.58;4.97;;;;;;;9.01;61.15;99895.78;4973195;28;20494;-65
2022/04/19 07:33:37;;;;;;;21.08;4.90;;;;;;;8.78;62.50;99901.34;4972855;28;20053;-65
2022/04/19 07:36:05;;;;;;;17.83;4.22;;;;;;;8.88;61.85;99893.28;4973385;28;20046;-66
2022/04/19 07:38:30;;;;;;;16.60;3.90;;;;;;;8.92;62.00;99897.44;4972812;28;20054;-66
2022/04/19 07:41:17;;;;;;;14.88;3.78;;;;;;;8.75;62.73;99901.63;4974695;28;20050;-65
2022/04/19 07:43:45;;;;;;;16.08;4.50;;;;;;;8.35;63.85;99888.84;4972682;28;20046;-65
2022/04/19 07:46:14;;;;;;;18.98;4.15;;;;;;;8.41;64.01;99899.16;4990439;28;20070;-65
2022/04/19 07:48:40;;;;;;;14.15;3.97;;;;;;;8.31;64.54;99891.94;4988946;28;20044;-65
2022/04/19 07:51:06;;;;;;;11.07;3.88;;;;;;;8.41;64.73;99904.53;4956365;28;20046;-65
2022/04/19 07:53:32;;;;;;;21.52;4.45;;;;;;;8.60;64.03;99905.66;4975074;28;20524;-65
2022/04/19 07:55:58;;;;;;;17.92;3.60;;;;;;;8.66;64.36;99907.78;4976695;28;20069;-64
2022/04/19 07:58:24;;;;;;;13.90;3.58;;;;;;;8.66;64.34;99913.19;4976905;28;20100;-65
2022/04/19 08:00:50;;;;;;;15.45;3.08;;;;;;;8.73;64.44;99919.75;4994170;28;20413;-65
2022/04/19 08:03:16;;;;;;;18.45;3.97;;;;;;;8.56;64.79;99917.69;4993429;28;20050;-64
2022/04/19 08:05:42;;;;;;;18.13;4.15;;;;;;;8.58;64.94;99921.94;4993678;28;20095;-65
2022/04/19 08:08:08;;;;;;;14.43;4.57;;;;;;;8.25;66.08;99925.63;4976868;28;20078;-66
2022/04/19 08:10:34;;;;;;;17.85;4.15;;;;;;;8.49;65.16;99913.81;4994170;28;20156;-64
2022/04/19 08:13:04;;;;;;;26.80;5.05;;;;;;;8.32;65.43;99910.66;4993233;28;20046;-65
2022/04/19 08:15:31;;;;;;;24.80;4.45;;;;;;;8.31;65.85;99913.50;4992843;28;20100;-64
2022/04/19 08:17:57;;;;;;;15.52;3.70;;;;;;;8.43;65.41;99912.47;4992441;28;20050;-65
2022/04/19 08:20:24;;;;;;;10.48;3.47;;;;;;;8.33;65.99;99906.97;4960274;28;20138;-64
2022/04/19 08:22:51;;;;;;;13.10;3.65;;;;;;;8.47;65.55;99907.66;4976208;28;20391;-64
2022/04/19 08:25:22;;;;;;;15.73;4.13;;;;;;;8.38;65.85;99903.94;4977213;28;20129;-65
2022/04/19 08:27:48;;;;;;;12.40;3.85;;;;;;;8.50;65.82;99908.25;4992533;28;20442;-65
2022/04/19 08:30:16;;;;;;;15.25;4.60;;;;;;;8.51;67.05;99903.72;4992275;28;20075;-67
2022/04/19 08:32:43;;;;;;;14.63;4.47;;;;;;;8.49;65.53;99913.81;4959788;28;20216;-65
2022/04/19 08:35:09;;;;;;;11.60;3.45;;;;;;;8.45;65.73;99911.38;4992196;28;20047;-65
2022/04/19 08:37:35;;;;;;;9.18;3.45;;;;;;;8.60;65.90;99908.34;4992063;28;20116;-65
2022/04/19 08:40:04;;;;;;;11.85;4.05;;;;;;;8.73;65.33;99890.09;4992365;28;20054;-64
2022/04/19 08:42:30;;;;;;;17.25;3.78;;;;;;;8.72;65.59;99901.88;4991959;28;20060;-64
2022/04/19 08:45:00;;;;;;;15.93;3.97;;;;;;;8.62;65.39;99874.00;4991868;28;20378;-66
2022/04/19 08:47:27;;;;;;;16.60;3.47;;;;;;;8.71;65.78;99896.63;4976106;28;20050;-64
2022/04/19 08:49:55;;;;;;;14.80;3.78;;;;;;;8.82;65.78;99897.41;4993231;28;20482;-65
2022/04/19 08:52:21;;;;;;;20.20;4.03;;;;;;;8.98;65.29;99893.34;4992227;28;20113;-64
2022/04/19 08:57:32;;;;;;;34.83;4.82;;;;;;;9.41;63.78;99893.94;4992075;28;20069;-64
2022/04/19 08:59:59;;;;;;;18.50;4.20;;;;;;;9.57;63.07;99892.53;4991606;28;20046;-64
2022/04/19 09:02:26;;;;;;;12.70;4.30;;;;;;;9.63;62.98;99884.75;4991275;28;20054;-65
2022/04/19 09:04:53;;;;;;;20.35;4.38;;;;;;;9.73;62.47;99892.88;4975309;28;20506;-65
2022/04/19 09:07:20;;;;;;;23.27;5.00;;;;;;;10.00;61.55;99877.81;4992673;28;20410;-66
2022/04/19 09:09:59;;;;;;;21.23;5.78;;;;;;;10.10;61.01;99884.09;4991049;28;20070;-65
2022/04/19 09:12:26;;;;;;;18.60;5.63;;;;;;;10.23;60.43;99890.03;4991700;28;20054;-65
2022/04/19 09:15:00;;;;;;;19.17;5.97;;;;;;;10.02;61.26;99889.31;4991464;28;20122;-65
2022/04/19 09:17:33;;;;;;;18.23;5.57;;;;;;;10.23;61.04;99895.44;4975431;28;20046;-65
2022/04/19 09:20:27;;;;;;;18.00;5.25;;;;;;;10.75;58.70;99878.88;4992717;28;20058;-65
2022/04/19 09:23:03;;;;;;;11.55;4.13;;;;;;;10.66;59.39;99888.72;4992187;28;20131;-65
2022/04/19 09:25:29;;;;;;;13.63;3.97;;;;;;;10.56;60.61;99885.19;4992926;28;20126;-65
2022/04/19 09:27:56;;;;;;;15.45;4.63;;;;;;;10.48;60.32;99871.56;4991356;28;20046;-65
2022/04/19 09:30:22;;;;;;;16.65;4.32;;;;;;;10.67;60.50;99885.03;4992677;28;20466;-66
2022/04/19 09:33:07;;;;;;;14.15;4.63;;;;;;;11.05;60.13;99885.91;4992440;28;20478;-65
2022/04/19 09:35:36;;;;;;;19.83;4.35;;;;;;;10.86;60.56;99882.28;4992619;28;20062;-65
2022/04/19 09:38:02;;;;;;;;;;;;;;;10.97;60.21;99892.06;4992748;28;20108;-65
2022/04/19 09:40:39;;;;;;;11.45;3.53;;;;;;;10.93;60.80;99892.50;4992521;28;19921;-65
2022/04/19 09:43:24;;;;;;;16.40;4.35;;;;;;;10.82;60.52;99872.75;4991062;28;20126;-64
2022/04/19 09:45:58;;;;;;;22.10;4.05;;;;;;;10.90;61.17;99896.38;4990850;28;20498;-65
2022/04/19 09:48:28;;;;;;;11.93;3.65;;;;;;;10.88;60.94;99900.22;4959347;28;20046;-64
2022/04/19 09:51:05;;;;;;;12.60;3.50;;;;;;;10.88;60.83;99901.06;4990569;28;20109;-66
2022/04/19 09:53:46;;;;;;;11.60;4.03;;;;;;;10.70;61.33;99890.13;4992195;28;20053;-64
2022/04/19 09:56:16;;;;;;;11.68;4.10;;;;;;;10.71;61.57;99910.75;4992529;28;20060;-64
2022/04/19 09:58:44;;;;;;;12.32;3.72;;;;;;;11.09;60.92;99908.97;4990647;28;20510;-64
2022/04/19 10:08:10;;;;;;;14.48;4.97;;;;;;;11.31;60.35;99914.00;4958306;28;20506;-65
2022/04/19 10:09:31;;;;;;;9.40;3.60;;;;;;;11.62;58.84;99900.13;4990375;28;20406;-64
2022/04/19 10:11:57;;;;;;;14.30;4.32;;;;;;;11.62;58.44;99883.88;4991505;28;20058;-65
2022/04/19 10:14:23;;;;;;;14.02;4.30;;;;;;;11.65;58.54;99902.53;4974290;28;20046;-65
2022/04/19 10:16:49;;;;;;;15.18;4.75;;;;;;;12.00;57.60;99893.66;4989325;28;20136;-65
2022/04/19 10:19:16;;;;;;;13.45;4.00;;;;;;;12.06;57.28;99887.59;4990079;28;20062;-65
2022/04/19 10:21:42;;;;;;;10.35;4.07;;;;;;;12.05;57.21;99890.47;4991279;28;20046;-65
2022/04/19 10:24:13;;;;;;;9.98;4.25;;;;;;;12.08;57.04;99884.75;4973938;28;20050;-65
2022/04/19 10:26:46;;;;;;;19.15;4.95;;;;;;;12.15;57.41;99896.66;4991653;28;20046;-66
2022/04/19 10:29:30;;;;;;;15.55;4.35;;;;;;;12.32;56.82;99903.06;4989816;28;20050;-66
2022/04/19 10:32:01;;;;;;;11.25;4.15;;;;;;;12.27;56.44;99903.53;4990009;28;20054;-65
2022/04/19 10:34:35;;;;;;;12.77;4.00;;;;;;;12.46;56.52;99899.81;4990190;28;20050;-66
2022/04/19 10:37:21;;;;;;;11.77;4.10;;;;;;;12.67;55.40;99904.88;4973975;28;20129;-66
2022/04/19 10:39:51;;;;;;;15.07;4.35;;;;;;;12.87;53.67;99888.38;4957324;28;20124;-65
2022/04/19 10:42:32;;;;;;;8.88;3.55;;;;;;;13.95;50.99;99873.22;4989673;28;20087;-64
2022/04/19 10:45:13;;;;;;;11.75;4.20;;;;;;;14.80;48.81;99881.06;4989538;28;20054;-65
2022/04/19 10:47:51;;;;;;;9.85;4.18;;;;;;;15.42;47.13;99883.94;4991200;28;20128;-65
2022/04/19 10:50:34;;;;;;;14.20;4.20;;;;;;;15.59;47.55;99888.31;4990981;28;20061;-66
2022/04/19 10:53:13;;;;;;;11.60;4.22;;;;;;;18.24;43.32;99869.75;4974192;28;20054;-66
2022/04/19 10:55:40;;;;;;;10.77;4.70;;;;;;;19.21;39.38;99877.28;4957086;28;20066;-66
2022/04/19 10:58:09;;;;;;;11.55;3.65;;;;;;;18.64;39.93;99863.78;4989304;28;20396;-66
2022/04/19 11:00:34;;;;;;;15.93;4.40;;;;;;;18.89;40.26;99865.06;4989438;28;20096;-66
2022/04/19 11:03:07;;;;;;;14.90;3.50;;;;;;;18.31;40.80;99872.56;4972992;28;20055;-66
2022/04/19 11:05:41;;;;;;;9.50;3.20;;;;;;;17.09;42.88;99864.97;4973436;28;20125;-65
2022/04/19 11:08:25;;;;;;;11.77;3.60;;;;;;;17.13;43.44;99876.38;4990127;28;20050;-66
2022/04/19 11:11:21;;;;;;;12.68;3.45;;;;;;;16.86;43.73;99878.72;4957054;28;20133;-66
2022/04/19 11:14:18;;;;;;;17.55;3.38;;;;;;;17.06;43.42;99865.34;4972822;28;20042;-65
2022/04/19 11:16:46;;;;;;;12.45;3.55;;;;;;;17.03;42.97;99865.72;4956866;28;20046;-66
2022/04/19 11:19:17;;;;;;;10.05;3.50;;;;;;;17.02;42.98;99864.03;4957081;28;20133;-66
2022/04/19 11:21:52;;;;;;;8.45;3.33;;;;;;;17.43;41.66;99855.34;4988818;28;20046;-65
2022/04/19 11:24:55;;;;;;;27.00;4.45;;;;;;;16.96;42.89;99856.56;4990818;28;20137;-65
2022/04/19 11:27:20;;;;;;;9.55;3.10;;;;;;;16.74;43.30;99849.31;4990678;28;20132;-65
2022/04/19 11:29:47;;;;;;;14.30;3.13;;;;;;;16.42;44.29;99834.94;4990580;28;20494;-65
2022/04/19 11:32:20;;;;;;;10.82;3.17;;;;;;;16.25;44.08;99849.75;4988936;28;20042;-66
2022/04/19 11:35:01;;;;;;;13.93;3.20;;;;;;;16.72;42.64;99834.97;4990432;28;20047;-66
2022/04/19 11:37:29;;;;;;;10.15;2.55;;;;;;;16.23;43.63;99840.88;4988920;28;20042;-67
2022/04/19 11:48:26;;;;;;;12.73;2.92;;;;;;;15.59;44.30;99822.91;4990177;28;20112;-66
2022/04/19 11:50:52;;;;;;;8.18;2.97;;;;;;;15.58;44.92;99843.00;4988833;28;20150;-65
2022/04/19 11:53:24;;;;;;;11.48;3.22;;;;;;;16.65;43.02;99840.34;4972859;28;20046;-64
2022/04/19 11:55:52;;;;;;;13.48;3.30;;;;;;;15.85;43.80;99849.84;4990488;28;20144;-66
2022/04/19 11:58:21;;;;;;;13.25;2.70;;;;;;;15.85;44.28;99843.56;4988710;28;20313;-66
2022/04/19 12:01:06;;;;;;;8.52;3.30;;;;;;;15.75;44.20;99835.59;4990367;28;20049;-66
2022/04/19 12:03:34;;;;;;;14.00;3.58;;;;;;;16.37;43.34;99845.53;4989753;28;20133;-66
2022/04/19 12:06:08;;;;;;;16.30;3.90;;;;;;;16.24;44.29;99848.06;4955975;28;20046;-65
2022/04/19 12:08:43;;;;;;;15.73;3.50;;;;;;;15.73;44.54;99845.00;4972885;28;20492;-65
2022/04/19 12:11:16;;;;;;;12.63;2.80;;;;;;;15.80;44.55;99840.53;4988455;28;20050;-66
2022/04/19 12:13:50;;;;;;;12.02;2.65;;;;;;;15.56;44.99;99828.69;4989117;28;20399;-65
2022/04/19 12:16:42;;;;;;;7.72;2.40;;;;;;;15.48;45.35;99858.72;4990136;28;20054;-65
2022/04/19 12:19:09;;;;;;;6.35;2.08;;;;;;;15.27;45.50;99856.59;4989438;28;20054;-65
2022/04/19 12:21:43;;;;;;;8.82;2.22;;;;;;;15.33;46.08;99855.06;4988785;28;20054;-66
2022/04/19 12:24:30;;;;;;;6.68;2.00;;;;;;;14.95;46.86;99846.66;4988537;28;20153;-66